Time;durP1;ratioP1;P1;durP2;ratioP2;P2;SDS_P1;SDS_P2;PMS_P1;PMS_P2;Temp;Humidity;BMP_temperature;BMP_pressure;BME280_temperature;BME280_humidity;BME280_pressure;Samples;Min_cycle;Max_cycle;Signal;HPM_P1;HPM_P2
2021/12/24 00:01:53;;;;;;;51.95;12.82;;;;;;;;;;5002187;28;20030;-74
2021/12/24 00:04:19;;;;;;;53.50;13.50;;;;;;;;;;4972743;28;20069;-75
2021/12/24 00:06:46;;;;;;;43.83;12.80;;;;;;;;;;4982483;28;20483;-74
2021/12/24 00:09:20;;;;;;;40.47;12.05;;;;;;;;;;4993112;28;20038;-74
2021/12/24 00:11:46;;;;;;;36.95;11.48;;;;;;;;;;4988529;28;20086;-76
2021/12/24 00:14:12;;;;;;;52.87;13.07;;;;;;;;;;4993785;28;20042;-72
2021/12/24 00:16:50;;;;;;;40.05;11.98;;;;;;;;;;4994657;28;20038;-71
2021/12/24 00:19:22;;;;;;;47.60;13.45;;;;;;;;;;4984660;28;20088;-74
2021/12/24 00:35:34;;;;;;;56.75;12.60;;;;;;;;;;4999695;28;20044;-76
2021/12/24 00:38:03;;;;;;;56.42;15.40;;;;;;;;;;5009408;28;20045;-75
2021/12/24 00:40:31;;;;;;;39.40;12.45;;;;;;;;;;4991682;28;20073;-75
2021/12/24 00:42:57;;;;;;;60.75;17.27;;;;;;;;;;5011017;28;20096;-71
2021/12/24 00:45:29;;;;;;;47.80;14.57;;;;;;;;;;5000247;28;20050;-72
2021/12/24 00:47:56;;;;;;;65.32;18.55;;;;;;;;;;4997313;28;20038;-73
2021/12/24 00:50:25;;;;;;;67.28;18.55;;;;;;;;;;4996029;28;20049;-71
2021/12/24 00:52:56;;;;;;;56.38;14.60;;;;;;;;;;5005389;28;20042;-71
2021/12/24 00:55:24;;;;;;;47.22;11.63;;;;;;;;;;5004251;28;20037;-71
2021/12/24 00:58:00;;;;;;;41.80;12.30;;;;;;;;;;5007609;28;20044;-73
2021/12/24 01:00:29;;;;;;;44.55;12.93;;;;;;;;;;5010232;28;20037;-74
2021/12/24 01:02:56;;;;;;;51.67;13.57;;;;;;;;;;5022112;28;20053;-72
2021/12/24 01:05:24;;;;;;;52.63;14.48;;;;;;;;;;5001325;28;20034;-72
2021/12/24 01:07:50;;;;;;;37.72;9.73;;;;;;;;;;5011768;28;20050;-74
2021/12/24 01:10:20;;;;;;;41.73;11.13;;;;;;;;;;5027465;28;20038;-74
2021/12/24 01:12:46;;;;;;;44.72;10.73;;;;;;;;;;5001095;28;20061;-72
2021/12/24 01:15:14;;;;;;;39.67;11.48;;;;;;;;;;5020139;28;20521;-71
2021/12/24 01:20:24;;;;;;;58.83;13.68;;;;;;;;;;5023778;28;20042;-71
2021/12/24 01:28:23;;;;;;;34.13;10.52;;;;;;;;;;5023684;28;20121;-71
2021/12/24 01:39:12;;;;;;;40.53;12.52;;;;;;;;;;5016983;28;20068;-73
2021/12/24 01:44:27;;;;;;;56.17;14.32;;;;;;;;;;5005491;28;20189;-72
2021/12/24 01:46:57;;;;;;;32.72;11.98;;;;;;;;;;5009474;28;20034;-71
2021/12/24 01:49:23;;;;;;;31.48;10.40;;;;;;;;;;5002463;28;20053;-71
2021/12/24 01:51:49;;;;;;;50.47;14.17;;;;;;;;;;5008437;28;20030;-71
2021/12/24 01:54:14;;;;;;;48.80;11.98;;;;;;;;;;5005524;28;20030;-72
2021/12/24 01:56:40;;;;;;;49.93;12.73;;;;;;;;;;5007178;28;20383;-71
2021/12/24 01:59:05;;;;;;;50.40;13.40;;;;;;;;;;5021068;28;20042;-71
2021/12/24 02:01:31;;;;;;;34.17;11.57;;;;;;;;;;5002419;28;20029;-71
2021/12/24 02:03:56;;;;;;;34.30;9.13;;;;;;;;;;4999783;28;20045;-71
2021/12/24 02:06:22;;;;;;;37.87;10.57;;;;;;;;;;5010331;28;20038;-71
2021/12/24 02:08:47;;;;;;;29.73;7.93;;;;;;;;;;5019543;28;20034;-71
2021/12/24 02:11:12;;;;;;;28.00;7.17;;;;;;;;;;4999905;28;20117;-71
2021/12/24 02:13:41;;;;;;;45.97;11.03;;;;;;;;;;4995495;28;20117;-72
2021/12/24 02:29:19;;;;;;;29.20;8.07;;;;;;;;;;5009053;28;20394;-71
2021/12/24 02:31:44;;;;;;;32.90;6.53;;;;;;;;;;5012411;28;20043;-71
2021/12/24 02:34:10;;;;;;;23.40;6.43;;;;;;;;;;4987512;28;20105;-73
2021/12/24 02:36:35;;;;;;;22.40;6.10;;;;;;;;;;4997357;28;20133;-71
2021/12/24 02:39:01;;;;;;;36.87;6.67;;;;;;;;;;5001165;28;20034;-71
2021/12/24 02:41:26;;;;;;;28.70;6.33;;;;;;;;;;4999149;28;20042;-71
2021/12/24 02:43:51;;;;;;;28.97;8.40;;;;;;;;;;5003180;28;20030;-71
2021/12/24 02:49:14;;;;;;;44.25;9.60;;;;;;;;;;5001871;28;20375;-71
2021/12/24 02:54:24;;;;;;;34.70;8.30;;;;;;;;;;5015179;28;20053;-71
2021/12/24 02:56:53;;;;;;;61.03;13.23;;;;;;;;;;4997896;28;20400;-70
2021/12/24 02:59:25;;;;;;;55.67;14.68;;;;;;;;;;5008038;28;20022;-72
2021/12/24 03:01:52;;;;;;;47.70;12.65;;;;;;;;;;4997602;28;20050;-71
2021/12/24 03:04:17;;;;;;;59.05;17.10;;;;;;;;;;5005726;28;20088;-71
2021/12/24 03:06:49;;;;;;;57.00;17.10;;;;;;;;;;4995948;28;20046;-71
2021/12/24 03:09:16;;;;;;;79.45;18.90;;;;;;;;;;4988578;28;20470;-71
2021/12/24 03:11:43;;;;;;;76.65;19.55;;;;;;;;;;4998665;28;20041;-71
2021/12/24 03:14:09;;;;;;;68.32;19.50;;;;;;;;;;4999518;28;20041;-71
2021/12/24 03:16:36;;;;;;;52.50;14.30;;;;;;;;;;5001086;28;20108;-73
2021/12/24 03:19:02;;;;;;;60.45;14.80;;;;;;;;;;5017210;28;20034;-73
2021/12/24 03:21:37;;;;;;;33.53;9.55;;;;;;;;;;4996752;28;20042;-73
2021/12/24 03:26:37;;;;;;;35.93;7.40;;;;;;;;;;5008389;28;20514;-73
2021/12/24 03:29:11;;;;;;;112.55;21.08;;;;;;;;;;5000640;28;20062;-71
2021/12/24 03:31:37;;;;;;;75.78;18.25;;;;;;;;;;4999355;28;20034;-71
2021/12/24 03:34:07;;;;;;;126.43;23.92;;;;;;;;;;4996516;28;20125;-72
2021/12/24 03:36:33;;;;;;;50.90;16.20;;;;;;;;;;4998976;28;20046;-70
2021/12/24 03:38:58;;;;;;;41.37;12.47;;;;;;;;;;4994976;28;20030;-71
2021/12/24 03:41:24;;;;;;;36.67;12.27;;;;;;;;;;5005011;28;20074;-71
2021/12/24 03:43:51;;;;;;;42.47;12.48;;;;;;;;;;4997314;28;20042;-71
2021/12/24 03:46:19;;;;;;;45.90;11.80;;;;;;;;;;5011310;28;20380;-71
2021/12/24 03:48:56;;;;;;;84.05;17.02;;;;;;;;;;4992701;28;20494;-71
2021/12/24 03:51:35;;;;;;;57.53;13.70;;;;;;;;;;4990914;28;20038;-71
2021/12/24 03:56:45;;;;;;;212.93;29.40;;;;;;;;;;4999994;28;20410;-71
2021/12/24 03:59:10;;;;;;;190.07;22.97;;;;;;;;;;5006741;28;20034;-71
2021/12/24 04:01:36;;;;;;;91.13;17.77;;;;;;;;;;5008093;28;20042;-71
2021/12/24 04:04:03;;;;;;;132.10;20.45;;;;;;;;;;4994762;28;20121;-71
2021/12/24 04:06:28;;;;;;;131.82;18.58;;;;;;;;;;4998047;28;20046;-71
2021/12/24 04:08:53;;;;;;;96.63;18.93;;;;;;;;;;4997564;28;20165;-70
2021/12/24 04:11:19;;;;;;;127.23;21.70;;;;;;;;;;5004025;28;20080;-71
2021/12/24 04:13:44;;;;;;;58.10;17.10;;;;;;;;;;4992934;28;20038;-71
2021/12/24 04:16:10;;;;;;;62.40;15.80;;;;;;;;;;4985747;28;20050;-71
2021/12/24 04:18:46;;;;;;;61.27;15.70;;;;;;;;;;4998689;28;20143;-71
2021/12/24 04:26:39;;;;;;;54.42;14.07;;;;;;;;;;4996417;28;20100;-72
2021/12/24 04:29:05;;;;;;;55.07;14.10;;;;;;;;;;5000923;28;20128;-70
2021/12/24 04:31:40;;;;;;;72.27;16.57;;;;;;;;;;4997408;28;20033;-74
2021/12/24 04:34:06;;;;;;;62.47;14.15;;;;;;;;;;5003435;28;20030;-73
2021/12/24 04:39:27;;;;;;;45.00;11.33;;;;;;;;;;4991951;28;20034;-74
2021/12/24 05:03:35;;;;;;;68.32;12.02;;;;;;;;;;4996537;28;20097;-71
2021/12/24 05:06:13;;;;;;;126.50;16.95;;;;;;;;;;4996529;28;20065;-71
2021/12/24 05:08:42;;;;;;;64.18;11.90;;;;;;;;;;4994343;28;20088;-71
2021/12/24 05:11:11;;;;;;;42.63;9.75;;;;;;;;;;4997576;28;20034;-71
2021/12/24 05:13:38;;;;;;;65.03;11.27;;;;;;;;;;5000095;28;20056;-71
2021/12/24 05:16:21;;;;;;;45.28;8.88;;;;;;;;;;4995463;28;20406;-71
2021/12/24 05:21:35;;;;;;;30.17;8.10;;;;;;;;;;5010313;28;20042;-71
2021/12/24 05:24:07;;;;;;;50.03;8.93;;;;;;;;;;5004001;28;20043;-71
2021/12/24 05:26:35;;;;;;;280.33;29.88;;;;;;;;;;5005801;28;20403;-71
2021/12/24 05:29:01;;;;;;;176.77;20.48;;;;;;;;;;4998087;28;20113;-71
2021/12/24 05:31:27;;;;;;;33.08;8.93;;;;;;;;;;5001421;28;20386;-71
2021/12/24 05:33:53;;;;;;;29.88;7.47;;;;;;;;;;5022852;28;20041;-72
2021/12/24 05:36:19;;;;;;;27.90;8.47;;;;;;;;;;4996770;28;20042;-71
2021/12/24 05:38:46;;;;;;;25.40;7.13;;;;;;;;;;5022629;28;20466;-71
2021/12/24 05:41:12;;;;;;;24.65;7.13;;;;;;;;;;5026367;28;20029;-71
2021/12/24 05:43:38;;;;;;;29.08;8.02;;;;;;;;;;5007633;28;20038;-71
2021/12/24 05:46:03;;;;;;;78.40;11.47;;;;;;;;;;5025152;28;20045;-71
2021/12/24 05:48:28;;;;;;;181.40;21.33;;;;;;;;;;5000981;28;20105;-71
2021/12/24 05:50:54;;;;;;;49.87;10.10;;;;;;;;;;4997862;28;20117;-71
2021/12/24 05:53:20;;;;;;;25.97;6.63;;;;;;;;;;4999947;28;20530;-71
2021/12/24 05:55:45;;;;;;;24.77;6.63;;;;;;;;;;5013744;28;20037;-73
2021/12/24 05:58:10;;;;;;;28.73;8.33;;;;;;;;;;5009673;28;20118;-72
2021/12/24 06:00:38;;;;;;;21.43;6.23;;;;;;;;;;5020025;28;20042;-73
2021/12/24 06:03:06;;;;;;;42.65;10.13;;;;;;;;;;5003070;28;20038;-73
2021/12/24 06:05:32;;;;;;;34.05;7.65;;;;;;;;;;5022042;28;20042;-73
2021/12/24 06:07:58;;;;;;;28.67;5.88;;;;;;;;;;4999692;28;20096;-73
2021/12/24 06:10:23;;;;;;;51.43;9.53;;;;;;;;;;5015510;28;20477;-73
2021/12/24 06:12:49;;;;;;;54.80;8.07;;;;;;;;;;5001616;28;20030;-73
2021/12/24 06:15:16;;;;;;;25.83;6.97;;;;;;;;;;4999771;28;20057;-73
2021/12/24 06:17:41;;;;;;;30.65;7.03;;;;;;;;;;5003016;28;20062;-71
2021/12/24 06:20:09;;;;;;;16.70;5.10;;;;;;;;;;5015626;28;20124;-71
2021/12/24 06:22:35;;;;;;;17.75;5.97;;;;;;;;;;4987421;28;20081;-71
2021/12/24 06:25:01;;;;;;;;;;;;;;;;;;4996826;28;20058;-71
2021/12/24 06:27:27;;;;;;;49.90;7.55;;;;;;;;;;5012255;28;19918;-71
2021/12/24 06:29:52;;;;;;;73.57;8.37;;;;;;;;;;5001386;28;20050;-71
2021/12/24 06:32:18;;;;;;;23.90;6.27;;;;;;;;;;5011019;28;20034;-71
2021/12/24 06:34:43;;;;;;;29.73;7.27;;;;;;;;;;5013332;28;20046;-71
2021/12/24 06:37:09;;;;;;;22.97;5.87;;;;;;;;;;5001657;28;20034;-71
2021/12/24 06:39:35;;;;;;;25.80;5.00;;;;;;;;;;4997791;28;20359;-72
2021/12/24 06:42:00;;;;;;;41.17;7.07;;;;;;;;;;5003208;28;20048;-71
2021/12/24 06:44:26;;;;;;;57.27;11.33;;;;;;;;;;4999457;28;20038;-71
2021/12/24 06:46:52;;;;;;;26.63;6.27;;;;;;;;;;5000241;28;20022;-71
2021/12/24 06:49:17;;;;;;;25.53;6.30;;;;;;;;;;4995879;28;20141;-71
2021/12/24 06:51:43;;;;;;;22.83;5.23;;;;;;;;;;4996375;28;20049;-71
2021/12/24 06:54:10;;;;;;;21.63;5.90;;;;;;;;;;5000107;28;20026;-72
2021/12/24 06:56:36;;;;;;;28.60;5.85;;;;;;;;;;4998275;28;20053;-71
2021/12/24 06:59:02;;;;;;;24.00;5.67;;;;;;;;;;4993360;28;20038;-71
2021/12/24 07:01:27;;;;;;;29.53;7.27;;;;;;;;;;5004907;28;20383;-71
2021/12/24 07:03:52;;;;;;;45.33;10.53;;;;;;;;;;4997089;28;20136;-71
2021/12/24 07:06:18;;;;;;;61.43;9.87;;;;;;;;;;4999747;28;20129;-71
2021/12/24 07:08:43;;;;;;;39.80;6.97;;;;;;;;;;5000935;28;20030;-71
2021/12/24 07:11:09;;;;;;;62.33;7.63;;;;;;;;;;4998353;28;20483;-71
2021/12/24 07:13:34;;;;;;;142.93;15.93;;;;;;;;;;4994846;28;20041;-71
2021/12/24 07:15:59;;;;;;;62.63;9.20;;;;;;;;;;5000488;28;20036;-71
2021/12/24 07:18:25;;;;;;;43.10;8.03;;;;;;;;;;5011091;28;20430;-71
2021/12/24 07:20:50;;;;;;;29.53;6.97;;;;;;;;;;4998785;28;20035;-71
2021/12/24 07:23:16;;;;;;;38.67;7.80;;;;;;;;;;5001899;28;20088;-71
2021/12/24 07:25:41;;;;;;;37.33;6.70;;;;;;;;;;4997388;28;20044;-71
2021/12/24 07:28:07;;;;;;;30.83;6.83;;;;;;;;;;4999496;28;20066;-71
2021/12/24 07:30:32;;;;;;;25.47;6.80;;;;;;;;;;5012542;28;20034;-74
2021/12/24 07:32:58;;;;;;;19.73;5.03;;;;;;;;;;5006988;28;20030;-73
2021/12/24 07:35:24;;;;;;;50.27;8.27;;;;;;;;;;5004969;28;20542;-74
2021/12/24 07:37:49;;;;;;;36.03;8.07;;;;;;;;;;4995076;28;20097;-74
2021/12/24 07:40:16;;;;;;;26.40;5.93;;;;;;;;;;5005282;28;20042;-73
2021/12/24 07:42:43;;;;;;;23.38;5.88;;;;;;;;;;4997133;28;20038;-70
2021/12/24 07:45:09;;;;;;;;;;;;;;;;;;4995806;28;20034;-70
2021/12/24 07:47:39;;;;;;;28.85;5.90;;;;;;;;;;5001802;28;20293;-71
2021/12/24 07:52:44;;;;;;;56.72;10.52;;;;;;;;;;5008417;28;20050;-71
2021/12/24 07:55:10;;;;;;;44.55;8.20;;;;;;;;;;5014859;28;20046;-70
2021/12/24 07:57:39;;;;;;;26.95;6.03;;;;;;;;;;5013597;28;20042;-72
2021/12/24 08:00:05;;;;;;;41.72;7.38;;;;;;;;;;5012749;28;20394;-71
2021/12/24 08:02:31;;;;;;;23.08;5.60;;;;;;;;;;4994904;28;20037;-71
2021/12/24 08:04:57;;;;;;;39.73;6.77;;;;;;;;;;5002843;28;20046;-71
2021/12/24 08:07:23;;;;;;;97.83;14.07;;;;;;;;;;4992094;28;20041;-71
2021/12/24 08:09:50;;;;;;;138.97;13.50;;;;;;;;;;4996156;28;20038;-70
2021/12/24 08:12:16;;;;;;;26.45;5.40;;;;;;;;;;4997733;28;20087;-71
2021/12/24 08:14:43;;;;;;;27.73;9.05;;;;;;;;;;5024241;28;20033;-71
2021/12/24 08:17:09;;;;;;;22.50;6.00;;;;;;;;;;5002793;28;20483;-71
2021/12/24 08:19:34;;;;;;;22.83;5.97;;;;;;;;;;4999340;28;20042;-71
2021/12/24 08:22:00;;;;;;;17.27;5.17;;;;;;;;;;5002361;28;20283;-71
2021/12/24 08:24:25;;;;;;;29.87;8.27;;;;;;;;;;5001466;28;20042;-72
2021/12/24 08:26:51;;;;;;;35.67;8.70;;;;;;;;;;5001755;28;20463;-71
2021/12/24 08:29:17;;;;;;;27.67;5.90;;;;;;;;;;5011029;28;20380;-71
2021/12/24 08:31:44;;;;;;;142.97;14.53;;;;;;;;;;5000671;28;20092;-73
2021/12/24 08:34:10;;;;;;;48.55;7.90;;;;;;;;;;5013189;28;20081;-73
2021/12/24 08:36:36;;;;;;;18.33;4.50;;;;;;;;;;5001385;28;20069;-73
2021/12/24 08:39:03;;;;;;;23.90;6.10;;;;;;;;;;4995897;28;20070;-73
2021/12/24 08:41:28;;;;;;;;;;;;;;;;;;5016085;28;20081;-73
2021/12/24 08:43:53;;;;;;;25.15;5.30;;;;;;;;;;4998014;28;19925;-70
2021/12/24 08:46:19;;;;;;;22.17;5.93;;;;;;;;;;4994708;28;20122;-70
2021/12/24 08:48:45;;;;;;;21.17;5.83;;;;;;;;;;4993096;28;20045;-70
2021/12/24 08:51:11;;;;;;;41.87;8.33;;;;;;;;;;4993720;28;20040;-71
2021/12/24 08:53:37;;;;;;;20.23;5.68;;;;;;;;;;4993553;28;20050;-71
2021/12/24 08:56:03;;;;;;;32.97;7.87;;;;;;;;;;4994479;28;20419;-70
2021/12/24 08:58:28;;;;;;;92.50;13.23;;;;;;;;;;5002379;28;20038;-70
2021/12/24 09:00:54;;;;;;;50.60;8.53;;;;;;;;;;5003746;28;20463;-70
2021/12/24 09:03:19;;;;;;;71.57;11.27;;;;;;;;;;4993666;28;20462;-71
2021/12/24 09:05:45;;;;;;;19.67;5.40;;;;;;;;;;4990211;28;20038;-73
2021/12/24 09:08:11;;;;;;;39.67;12.50;;;;;;;;;;5013305;28;20037;-71
2021/12/24 09:10:36;;;;;;;48.93;11.97;;;;;;;;;;5018073;28;20026;-71
2021/12/24 09:13:02;;;;;;;33.60;6.97;;;;;;;;;;5010683;28;20072;-70
2021/12/24 09:15:30;;;;;;;109.47;14.10;;;;;;;;;;4998941;28;20049;-71
2021/12/24 09:17:58;;;;;;;24.55;8.32;;;;;;;;;;4997138;28;20044;-71
2021/12/24 09:20:29;;;;;;;24.73;7.55;;;;;;;;;;5008223;28;20054;-72
2021/12/24 09:22:55;;;;;;;57.80;18.95;;;;;;;;;;5015954;28;20054;-72
2021/12/24 09:25:22;;;;;;;30.48;7.70;;;;;;;;;;4993685;28;20081;-72
2021/12/24 09:27:48;;;;;;;19.45;5.00;;;;;;;;;;5006998;28;20450;-72
2021/12/24 09:30:13;;;;;;;25.57;5.63;;;;;;;;;;4997509;28;20105;-73
2021/12/24 09:32:39;;;;;;;28.67;6.87;;;;;;;;;;4991415;28;20371;-75
2021/12/24 09:35:05;;;;;;;45.93;7.83;;;;;;;;;;4995941;28;21572;-75
2021/12/24 09:37:30;;;;;;;66.93;11.07;;;;;;;;;;5007139;28;20395;-75
2021/12/24 09:39:56;;;;;;;17.77;5.17;;;;;;;;;;4998968;28;20369;-75
2021/12/24 09:42:24;;;;;;;25.17;6.20;;;;;;;;;;5005917;28;20038;-75
2021/12/24 09:44:49;;;;;;;21.88;6.00;;;;;;;;;;5003189;28;20038;-74
2021/12/24 09:47:14;;;;;;;15.77;6.40;;;;;;;;;;4993756;28;20398;-75
2021/12/24 09:49:40;;;;;;;23.17;6.23;;;;;;;;;;5000410;28;20124;-75
2021/12/24 09:52:06;;;;;;;21.77;7.87;;;;;;;;;;5014901;28;20481;-76
2021/12/24 09:54:31;;;;;;;23.63;7.00;;;;;;;;;;4997120;28;20041;-75
2021/12/24 09:56:58;;;;;;;24.20;8.87;;;;;;;;;;4993044;28;20082;-75
2021/12/24 09:59:24;;;;;;;26.20;7.90;;;;;;;;;;4996525;28;20050;-74
2021/12/24 10:01:55;;;;;;;32.17;10.47;;;;;;;;;;5006545;28;20042;-75
2021/12/24 10:04:26;;;;;;;31.27;7.53;;;;;;;;;;4992097;28;21916;-74
2021/12/24 10:06:54;;;;;;;24.38;7.47;;;;;;;;;;4990603;28;20073;-76
2021/12/24 10:09:21;;;;;;;;;;;;;;;;;;4997796;28;20042;-75
2021/12/24 10:11:51;;;;;;;28.00;7.28;;;;;;;;;;5000040;28;19979;-75
2021/12/24 10:14:21;;;;;;;21.13;7.38;;;;;;;;;;4987514;28;20035;-74
2021/12/24 10:16:50;;;;;;;27.40;8.18;;;;;;;;;;4988946;28;20046;-74
2021/12/24 10:19:16;;;;;;;21.92;6.38;;;;;;;;;;5011101;28;20042;-76
2021/12/24 10:21:44;;;;;;;34.30;7.18;;;;;;;;;;4995072;28;20386;-74
2021/12/24 10:24:18;;;;;;;31.92;7.88;;;;;;;;;;4996641;28;20038;-74
2021/12/24 10:26:48;;;;;;;23.85;7.20;;;;;;;;;;5017500;28;20390;-73
2021/12/24 10:29:16;;;;;;;16.05;4.93;;;;;;;;;;5022064;28;20406;-71
2021/12/24 10:31:50;;;;;;;33.17;7.93;;;;;;;;;;4994164;28;20382;-70
2021/12/24 10:34:20;;;;;;;19.38;6.05;;;;;;;;;;5015641;28;20078;-71
2021/12/24 10:36:56;;;;;;;28.55;6.72;;;;;;;;;;5009869;28;20096;-72
2021/12/24 10:39:27;;;;;;;26.13;8.55;;;;;;;;;;5000754;28;20620;-71
2021/12/24 10:41:54;;;;;;;28.48;7.40;;;;;;;;;;5021374;28;20052;-71
2021/12/24 10:44:26;;;;;;;19.42;5.82;;;;;;;;;;5020635;28;20391;-71
2021/12/24 10:47:04;;;;;;;18.98;4.88;;;;;;;;;;4985050;28;20089;-70
2021/12/24 10:54:51;;;;;;;14.45;5.03;;;;;;;;;;5004673;28;20133;-70
2021/12/24 10:57:18;;;;;;;22.13;5.93;;;;;;;;;;5000048;28;20026;-71
2021/12/24 10:59:49;;;;;;;24.58;6.15;;;;;;;;;;5008533;28;20033;-71
2021/12/24 11:02:14;;;;;;;18.30;6.20;;;;;;;;;;5000749;28;20064;-70
2021/12/24 11:04:39;;;;;;;34.47;7.30;;;;;;;;;;5006943;28;20031;-71
2021/12/24 11:07:31;;;;;;;60.23;8.27;;;;;;;;;;5004690;28;20032;-70
2021/12/24 11:10:12;;;;;;;14.90;5.60;;;;;;;;;;5000327;28;20053;-71
2021/12/24 11:12:46;;;;;;;14.02;5.45;;;;;;;;;;4996614;28;20045;-71
2021/12/24 11:15:26;;;;;;;19.90;6.63;;;;;;;;;;4984298;28;20042;-70
2021/12/24 11:17:56;;;;;;;19.27;5.35;;;;;;;;;;4996348;28;20038;-70
2021/12/24 11:20:22;;;;;;;23.80;5.45;;;;;;;;;;4997581;28;20394;-70
2021/12/24 11:23:06;;;;;;;15.67;5.70;;;;;;;;;;5010178;28;20046;-70
2021/12/24 11:25:37;;;;;;;15.38;5.22;;;;;;;;;;5003969;28;20038;-70
2021/12/24 11:28:04;;;;;;;16.55;5.32;;;;;;;;;;5007956;28;20033;-69
2021/12/24 11:30:31;;;;;;;15.85;4.63;;;;;;;;;;5015152;28;20037;-73
2021/12/24 11:32:56;;;;;;;22.25;5.53;;;;;;;;;;5003268;28;20510;-73
2021/12/24 11:35:24;;;;;;;44.40;8.77;;;;;;;;;;5012595;28;20023;-73
2021/12/24 11:37:51;;;;;;;22.92;6.07;;;;;;;;;;4995851;28;20476;-72
2021/12/24 11:40:18;;;;;;;11.43;5.55;;;;;;;;;;4994634;28;20035;-73
2021/12/24 11:42:50;;;;;;;17.70;5.53;;;;;;;;;;5014683;28;20041;-70
2021/12/24 11:45:16;;;;;;;13.85;5.50;;;;;;;;;;5007413;28;20049;-71
2021/12/24 11:47:41;;;;;;;12.60;5.00;;;;;;;;;;5003662;28;20038;-70
2021/12/24 11:50:07;;;;;;;15.17;5.57;;;;;;;;;;4999924;28;20508;-70
2021/12/24 11:52:33;;;;;;;13.43;5.07;;;;;;;;;;5002219;28;20491;-72
2021/12/24 11:55:00;;;;;;;23.57;7.53;;;;;;;;;;5018649;28;20505;-70
2021/12/24 11:57:26;;;;;;;;;;;;;;;;;;5004073;28;20066;-70
2021/12/24 11:59:51;;;;;;;27.85;10.57;;;;;;;;;;4995949;28;19922;-70
2021/12/24 12:02:43;;;;;;;31.07;11.90;;;;;;;;;;4996196;28;20422;-73
2021/12/24 12:05:18;;;;;;;29.38;10.82;;;;;;;;;;4998298;28;20141;-72
2021/12/24 12:07:45;;;;;;;51.00;14.40;;;;;;;;;;4997634;28;20113;-73
2021/12/24 12:10:11;;;;;;;40.90;13.05;;;;;;;;;;5012233;28;20049;-73
2021/12/24 12:12:39;;;;;;;40.93;12.40;;;;;;;;;;5018640;28;20034;-73
2021/12/24 12:15:26;;;;;;;35.78;11.70;;;;;;;;;;4992341;28;20505;-73
2021/12/24 12:17:53;;;;;;;31.00;12.10;;;;;;;;;;4995300;28;20034;-73
2021/12/24 12:20:44;;;;;;;33.20;12.45;;;;;;;;;;5011182;28;20064;-74
2021/12/24 12:23:16;;;;;;;37.22;13.40;;;;;;;;;;4998467;28;20488;-73
2021/12/24 12:25:42;;;;;;;42.25;15.23;;;;;;;;;;4998667;28;20042;-70
2021/12/24 12:28:13;;;;;;;35.60;13.60;;;;;;;;;;4998955;28;20513;-70
2021/12/24 12:30:49;;;;;;;31.85;13.70;;;;;;;;;;4985503;28;21811;-75
2021/12/24 12:33:17;;;;;;;41.47;15.10;;;;;;;;;;5003271;28;20150;-75
2021/12/24 12:35:57;;;;;;;28.20;12.55;;;;;;;;;;4993642;28;20101;-74
2021/12/24 12:38:34;;;;;;;28.25;11.40;;;;;;;;;;4995994;28;20072;-73
2021/12/24 12:41:34;;;;;;;31.90;13.02;;;;;;;;;;4997500;28;20072;-74
2021/12/24 12:44:11;;;;;;;25.83;7.82;;;;;;;;;;4990521;28;20042;-73
2021/12/24 12:46:40;;;;;;;25.50;7.72;;;;;;;;;;5005125;28;20038;-74
2021/12/24 12:49:10;;;;;;;30.27;10.00;;;;;;;;;;4991314;28;20046;-71
2021/12/24 12:51:52;;;;;;;28.92;8.80;;;;;;;;;;4994756;28;20038;-73
2021/12/24 12:54:26;;;;;;;26.98;8.93;;;;;;;;;;4989073;28;20047;-71
2021/12/24 12:57:26;;;;;;;19.55;8.60;;;;;;;;;;4993885;28;20041;-71
2021/12/24 13:00:12;;;;;;;25.27;10.77;;;;;;;;;;4987758;28;20042;-71
2021/12/24 13:02:56;;;;;;;22.00;8.73;;;;;;;;;;4998161;28;20034;-73
2021/12/24 13:05:21;;;;;;;22.27;7.75;;;;;;;;;;4994580;28;20447;-74
2021/12/24 13:07:48;;;;;;;30.57;7.50;;;;;;;;;;5003370;28;20046;-73
2021/12/24 13:10:16;;;;;;;16.10;6.75;;;;;;;;;;4989553;28;20038;-73
2021/12/24 13:12:42;;;;;;;24.13;6.93;;;;;;;;;;5003714;28;20046;-72
2021/12/24 13:15:15;;;;;;;26.08;7.60;;;;;;;;;;4996536;28;20046;-71
2021/12/24 13:17:44;;;;;;;20.42;7.43;;;;;;;;;;4994779;28;20045;-71
2021/12/24 13:20:18;;;;;;;15.35;7.28;;;;;;;;;;4993561;28;20527;-71
2021/12/24 13:22:44;;;;;;;17.67;7.75;;;;;;;;;;4990134;28;20064;-71
2021/12/24 13:25:13;;;;;;;31.73;8.93;;;;;;;;;;5000180;28;20116;-71
2021/12/24 13:27:41;;;;;;;22.92;9.75;;;;;;;;;;5016118;28;20046;-72
2021/12/24 13:30:16;;;;;;;24.20;9.90;;;;;;;;;;4993258;28;20049;-72
2021/12/24 13:32:43;;;;;;;25.05;8.88;;;;;;;;;;4989761;28;20042;-71
2021/12/24 13:35:09;;;;;;;21.77;9.48;;;;;;;;;;4984095;28;20042;-70
2021/12/24 13:37:35;;;;;;;21.00;8.87;;;;;;;;;;4994377;28;20042;-71
2021/12/24 13:40:00;;;;;;;21.30;8.03;;;;;;;;;;4990509;28;20046;-71
2021/12/24 13:42:26;;;;;;;27.60;11.03;;;;;;;;;;4985759;28;20038;-70
2021/12/24 13:45:00;;;;;;;31.97;11.83;;;;;;;;;;5001996;28;20509;-72
2021/12/24 13:48:13;;;;;;;33.05;14.35;;;;;;;;;;5003149;28;20042;-71
2021/12/24 13:55:40;;;;;;;32.95;13.50;;;;;;;;;;5003222;28;20484;-70
2021/12/24 13:58:11;;;;;;;28.17;8.80;;;;;;;;;;5013394;28;20049;-71
2021/12/24 14:00:39;;;;;;;23.52;7.90;;;;;;;;;;5000424;28;20019;-73
2021/12/24 14:03:08;;;;;;;25.83;10.55;;;;;;;;;;4997051;28;20038;-70
2021/12/24 14:05:50;;;;;;;17.55;6.90;;;;;;;;;;5007222;28;20536;-72
2021/12/24 14:08:18;;;;;;;19.02;8.75;;;;;;;;;;5007470;28;20133;-71
2021/12/24 14:10:45;;;;;;;22.40;10.00;;;;;;;;;;5020726;28;20416;-70
2021/12/24 14:13:25;;;;;;;18.30;8.35;;;;;;;;;;5017546;28;20046;-71
2021/12/24 14:16:03;;;;;;;14.07;7.75;;;;;;;;;;5001586;28;20061;-72
2021/12/24 14:18:42;;;;;;;26.73;9.95;;;;;;;;;;5017635;28;20097;-71
2021/12/24 14:24:18;;;;;;;28.58;9.50;;;;;;;;;;5001919;28;20054;-71
2021/12/24 14:26:54;;;;;;;21.02;7.78;;;;;;;;;;4998503;28;20547;-71
2021/12/24 14:29:30;;;;;;;22.15;10.10;;;;;;;;;;5009483;28;20065;-74
2021/12/24 14:32:00;;;;;;;24.08;10.73;;;;;;;;;;5024407;28;20046;-73
2021/12/24 14:34:37;;;;;;;19.20;8.23;;;;;;;;;;5002388;28;20034;-73
2021/12/24 14:37:08;;;;;;;27.95;10.32;;;;;;;;;;5000228;28;20038;-73
2021/12/24 14:39:46;;;;;;;23.45;9.38;;;;;;;;;;5002086;28;20034;-73
2021/12/24 14:42:15;;;;;;;20.45;9.13;;;;;;;;;;5024463;28;20034;-73
2021/12/24 14:44:41;;;;;;;27.77;11.32;;;;;;;;;;5004238;28;20044;-73
2021/12/24 14:47:08;;;;;;;22.38;8.73;;;;;;;;;;5014016;28;20026;-73
2021/12/24 14:49:36;;;;;;;20.52;8.27;;;;;;;;;;5010999;28;20033;-73
2021/12/24 14:52:23;;;;;;;20.58;7.50;;;;;;;;;;5003826;28;20487;-71
2021/12/24 14:55:07;;;;;;;20.98;6.97;;;;;;;;;;5011338;28;20030;-71
2021/12/24 14:57:33;;;;;;;13.77;6.05;;;;;;;;;;5002351;28;20113;-72
2021/12/24 15:00:10;;;;;;;23.80;7.77;;;;;;;;;;5006211;28;20117;-73
2021/12/24 15:02:40;;;;;;;17.13;6.90;;;;;;;;;;4999691;28;20036;-73
2021/12/24 15:05:06;;;;;;;24.33;8.70;;;;;;;;;;5003551;28;20176;-74
2021/12/24 15:07:31;;;;;;;16.20;6.00;;;;;;;;;;5003484;28;20129;-73
2021/12/24 15:10:13;;;;;;;17.43;7.07;;;;;;;;;;5017483;28;20711;-73
2021/12/24 15:12:49;;;;;;;16.83;6.75;;;;;;;;;;5004590;28;20045;-73
2021/12/24 15:15:16;;;;;;;11.90;6.35;;;;;;;;;;5010915;28;20453;-73
2021/12/24 15:17:43;;;;;;;21.67;7.68;;;;;;;;;;5016297;28;20113;-73
2021/12/24 15:20:09;;;;;;;14.13;6.75;;;;;;;;;;4994370;28;20177;-73
2021/12/24 15:22:35;;;;;;;18.27;7.93;;;;;;;;;;4993815;28;20053;-74
2021/12/24 15:25:01;;;;;;;16.00;8.27;;;;;;;;;;5017962;28;20034;-71
2021/12/24 15:27:32;;;;;;;22.30;10.13;;;;;;;;;;5004415;28;20036;-72
2021/12/24 15:29:59;;;;;;;21.92;8.13;;;;;;;;;;4999582;28;20038;-71
2021/12/24 15:32:25;;;;;;;23.33;11.63;;;;;;;;;;5014876;28;20039;-73
2021/12/24 15:34:50;;;;;;;25.70;12.57;;;;;;;;;;4995401;28;20513;-73
2021/12/24 15:37:16;;;;;;;25.67;10.87;;;;;;;;;;5008033;28;20049;-73
2021/12/24 15:39:41;;;;;;;19.37;8.30;;;;;;;;;;5004205;28;20551;-73
2021/12/24 15:42:07;;;;;;;27.60;10.07;;;;;;;;;;5000682;28;20034;-73
2021/12/24 15:44:34;;;;;;;22.48;8.88;;;;;;;;;;5009503;28;20478;-73
2021/12/24 15:46:59;;;;;;;19.50;10.27;;;;;;;;;;5011151;28;20042;-73
2021/12/24 15:49:25;;;;;;;13.83;6.53;;;;;;;;;;5012742;28;20052;-73
2021/12/24 15:51:50;;;;;;;13.73;6.63;;;;;;;;;;4995392;28;20493;-72
2021/12/24 15:54:16;;;;;;;20.37;8.07;;;;;;;;;;5002831;28;20424;-71
2021/12/24 15:56:41;;;;;;;19.23;8.97;;;;;;;;;;4997763;28;20049;-72
2021/12/24 15:59:06;;;;;;;15.53;5.60;;;;;;;;;;5003340;28;20116;-71
2021/12/24 16:01:32;;;;;;;13.60;6.87;;;;;;;;;;5020610;28;20474;-71
2021/12/24 16:03:57;;;;;;;18.77;8.27;;;;;;;;;;5012329;28;20057;-71
2021/12/24 16:06:23;;;;;;;13.67;7.13;;;;;;;;;;5009739;28;20040;-71
2021/12/24 16:08:48;;;;;;;15.73;7.30;;;;;;;;;;5006218;28;20140;-70
2021/12/24 16:11:14;;;;;;;9.53;4.60;;;;;;;;;;4997742;28;20455;-71
2021/12/24 16:13:39;;;;;;;12.73;6.57;;;;;;;;;;5011566;28;20140;-71
2021/12/24 16:16:06;;;;;;;17.10;6.80;;;;;;;;;;4999766;28;20046;-71
2021/12/24 16:18:31;;;;;;;;;;;;;;;;;;4993462;28;20509;-71
2021/12/24 16:20:57;;;;;;;8.82;4.72;;;;;;;;;;4994401;28;19918;-72